Huntsville, Texas
Current Conditions -  °F | °C
As of 12:53 AM on Sunday 23 Nov 2014 (Local Time) from KUTS Reporting Station
Moderate Rain Moderate Rain  
Wind Chill: 62°   Ceiling: 8000
Heat Index: 62°   Visibility: 5mi
Dew Point: 60°   Wind: 5mph
Humidity: 93%   Direction: 200°SSW
Pressure: 29.72"   Gusts: NA
Location:  30.72°N, 95.55°W
Report Text: KUTS 230653Z AUTO 20004KT 5SM RA BR SCT065 OVC080 17/16 A2972 RMK AO2 RAB0555 SLP062 P0066 T01670156
Loading
Personal Weather Stations






























Interactive Weather Map New forecast layout! Learn more

10-Day Weather Forecast

Advertisements
Track Severe Weather on mobile